Time;durP1;ratioP1;P1;durP2;ratioP2;P2;SDS_P1;SDS_P2;PMS_P1;PMS_P2;Temp;Humidity;BMP_temperature;BMP_pressure;BME280_temperature;BME280_humidity;BME280_pressure;Samples;Min_cycle;Max_cycle;Signal;HPM_P1;HPM_P2
2023/06/02 00:05:34;;;;;;;5.65;3.20;;;;;;;15.07;45.26;97678.53;10592057;27;20052;-71
2023/06/02 00:10:55;;;;;;;4.85;2.67;;;;;;;15.05;45.83;97663.63;10611455;27;20130;-71
2023/06/02 00:16:16;;;;;;;4.70;2.60;;;;;;;15.05;45.89;97672.06;10596849;27;20067;-71
2023/06/02 00:21:37;;;;;;;5.88;2.97;;;;;;;14.99;46.45;97668.97;10610349;27;20156;-71
2023/06/02 00:26:58;;;;;;;5.80;3.00;;;;;;;14.88;47.09;97664.94;10610721;27;20127;-71
2023/06/02 00:32:19;;;;;;;5.65;2.75;;;;;;;14.81;47.27;97657.56;10596743;27;20503;-71
2023/06/02 00:37:40;;;;;;;6.45;3.17;;;;;;;14.74;47.78;97673.38;10596449;27;20072;-71
2023/06/02 00:43:01;;;;;;;6.07;3.15;;;;;;;14.64;48.35;97666.53;10596023;27;20188;-71
2023/06/02 00:48:21;;;;;;;9.38;3.63;;;;;;;14.55;48.46;97666.13;10581729;27;20121;-71
2023/06/02 00:53:43;;;;;;;4.32;2.92;;;;;;;14.49;48.68;97663.00;10595852;27;20065;-71
2023/06/02 00:59:03;;;;;;;6.40;3.20;;;;;;;14.46;49.21;97661.44;10581373;27;20064;-71
2023/06/02 01:04:24;;;;;;;6.60;3.15;;;;;;;14.41;49.41;97662.56;10595110;27;20445;-71
2023/06/02 01:09:45;;;;;;;7.95;3.13;;;;;;;14.36;49.79;97662.97;10595244;27;20138;-71
2023/06/02 01:15:07;;;;;;;6.55;3.05;;;;;;;14.30;50.73;97663.41;10595107;27;20059;-71
2023/06/02 01:20:28;;;;;;;7.63;3.58;;;;;;;14.22;50.80;97662.97;10594780;27;20118;-71
2023/06/02 01:25:52;;;;;;;10.07;3.33;;;;;;;14.19;51.32;97656.53;10580669;27;20511;-71
2023/06/02 01:31:18;;;;;;;7.32;3.80;;;;;;;14.15;51.56;97661.22;10580172;27;20126;-71
2023/06/02 01:36:40;;;;;;;8.75;3.75;;;;;;;14.04;52.04;97668.38;10595072;28;20043;-71
2023/06/02 01:42:01;;;;;;;9.73;3.42;;;;;;;13.98;53.76;97665.97;10609282;28;20039;-72
2023/06/02 01:47:22;;;;;;;6.28;3.20;;;;;;;13.93;53.22;97667.09;10580189;28;20047;-71
2023/06/02 01:52:43;;;;;;;7.50;3.58;;;;;;;13.90;53.54;97668.34;10594445;28;20069;-71
2023/06/02 01:58:04;;;;;;;5.15;3.08;;;;;;;13.87;54.29;97668.84;10608029;28;20118;-71
2023/06/02 02:03:25;;;;;;;7.72;3.13;;;;;;;13.88;54.96;97671.03;10593809;28;20378;-71
2023/06/02 02:08:46;;;;;;;5.90;3.20;;;;;;;13.79;55.27;97671.22;10593754;28;20122;-71
2023/06/02 02:14:06;;;;;;;7.72;3.60;;;;;;;13.72;55.67;97667.38;10607955;28;20063;-71
2023/06/02 02:19:31;;;;;;;6.63;3.15;;;;;;;13.65;56.93;97663.50;10593634;28;20130;-71
2023/06/02 02:24:52;;;;;;;7.50;3.20;;;;;;;13.59;56.49;97679.25;10608343;28;20066;-71
2023/06/02 02:30:12;;;;;;;8.23;2.97;;;;;;;13.52;56.73;97675.41;10607965;28;20062;-71
2023/06/02 02:35:34;;;;;;;5.93;3.33;;;;;;;13.32;57.43;97680.63;10593340;28;20115;-71
2023/06/02 02:40:55;;;;;;;7.68;3.63;;;;;;;13.27;58.37;97683.81;10607531;28;20165;-71
2023/06/02 02:46:16;;;;;;;6.32;3.33;;;;;;;13.17;58.13;97697.97;10597891;27;20055;-71
2023/06/02 02:51:37;;;;;;;7.75;3.20;;;;;;;13.12;58.84;97694.22;10586594;27;20123;-70
2023/06/02 02:56:58;;;;;;;7.28;3.88;;;;;;;13.11;59.44;97686.41;10585973;27;20130;-71
2023/06/02 03:02:19;;;;;;;8.75;2.92;;;;;;;13.11;60.25;97698.34;10600266;27;20051;-70
2023/06/02 03:07:44;;;;;;;6.55;3.20;;;;;;;13.07;60.11;97698.13;10600294;27;20039;-71
2023/06/02 03:13:05;;;;;;;11.90;4.00;;;;;;;13.10;60.16;97696.16;10600328;27;20481;-71
2023/06/02 03:18:26;;;;;;;7.35;3.42;;;;;;;13.01;61.38;97694.97;10613831;27;20118;-71
2023/06/02 03:23:47;;;;;;;5.82;2.85;;;;;;;13.06;61.13;97693.88;10613813;27;20164;-71
2023/06/02 03:29:08;;;;;;;6.35;3.20;;;;;;;13.10;61.83;97682.13;10613793;27;20110;-71
2023/06/02 03:34:30;;;;;;;6.78;3.65;;;;;;;13.24;61.72;97687.88;10599371;27;20071;-71
2023/06/02 03:39:53;;;;;;;8.13;3.63;;;;;;;13.25;61.83;97692.13;10613619;27;20039;-71
2023/06/02 03:45:15;;;;;;;9.13;3.65;;;;;;;13.36;61.27;97708.16;10613370;27;20486;-71
2023/06/02 03:50:38;;;;;;;7.60;3.60;;;;;;;13.44;61.09;97709.34;10598322;27;20134;-71
2023/06/02 03:56:00;;;;;;;;;;;;;;;13.64;61.97;97700.59;10598842;27;20043;-71
2023/06/02 04:01:23;;;;;;;11.38;3.97;;;;;;;13.87;61.45;97720.09;10597749;27;19957;-71
2023/06/02 04:06:46;;;;;;;7.90;3.08;;;;;;;13.94;61.15;97723.94;10597402;27;20142;-71
2023/06/02 04:12:06;;;;;;;9.25;3.45;;;;;;;14.01;60.77;97731.34;10611748;27;20051;-71
2023/06/02 04:17:29;;;;;;;7.53;3.13;;;;;;;14.07;60.71;97725.31;10597340;27;20070;-71
2023/06/02 04:22:50;;;;;;;7.82;3.35;;;;;;;14.10;60.53;97730.44;10597093;27;20107;-71
2023/06/02 04:28:11;;;;;;;9.40;2.95;;;;;;;14.19;60.29;97742.84;10582530;27;20071;-71
2023/06/02 04:33:33;;;;;;;12.13;3.22;;;;;;;14.48;60.32;97745.81;10596598;27;20046;-71
2023/06/02 04:38:53;;;;;;;10.27;2.80;;;;;;;14.59;59.37;97738.66;10596233;27;20148;-71
2023/06/02 04:44:16;;;;;;;7.00;3.17;;;;;;;14.66;59.24;97736.84;10582139;27;20039;-71
2023/06/02 04:49:40;;;;;;;8.52;3.78;;;;;;;14.90;58.60;97738.09;10596658;27;20047;-71
2023/06/02 04:55:00;;;;;;;8.23;3.63;;;;;;;14.97;57.96;97723.00;10609911;27;20114;-71
2023/06/02 05:00:22;;;;;;;7.47;3.30;;;;;;;15.17;57.66;97740.16;10609987;27;20476;-71
2023/06/02 05:05:42;;;;;;;7.80;3.53;;;;;;;15.55;57.33;97738.50;10609277;27;20113;-70
2023/06/02 05:11:05;;;;;;;10.32;3.28;;;;;;;15.85;55.91;97738.50;10609635;27;20071;-71
2023/06/02 05:16:29;;;;;;;5.85;3.33;;;;;;;16.24;55.52;97749.44;10581538;27;20063;-71
2023/06/02 05:21:50;;;;;;;;;;;;;;;16.65;54.41;97749.16;10595678;27;20067;-71
2023/06/02 05:27:11;;;;;;;11.50;3.17;;;;;;;17.07;53.84;97747.47;10624492;27;19919;-71
2023/06/02 05:32:33;;;;;;;10.50;3.63;;;;;;;17.38;52.88;97757.94;10580403;27;20035;-71
2023/06/02 05:37:56;;;;;;;;;;;;;;;17.80;51.78;97763.84;10595170;28;20067;-71
2023/06/02 05:43:17;;;;;;;7.55;3.20;;;;;;;18.00;50.57;97764.66;10608254;28;20010;-71
2023/06/02 05:48:40;;;;;;;11.10;3.45;;;;;;;18.68;49.83;97781.31;10593706;28;20043;-71
2023/06/02 05:54:01;;;;;;;10.15;3.38;;;;;;;19.28;48.17;97776.34;10594213;28;20046;-71
2023/06/02 05:59:22;;;;;;;8.45;3.00;;;;;;;19.80;47.36;97782.31;10608031;28;20458;-71
2023/06/02 06:04:44;;;;;;;8.15;2.58;;;;;;;19.74;45.83;97774.34;10608119;28;20051;-71
2023/06/02 06:10:06;;;;;;;11.55;3.42;;;;;;;20.45;43.60;97784.31;10608141;28;20043;-69
2023/06/02 06:15:27;;;;;;;10.25;3.05;;;;;;;20.56;42.69;97788.91;10579837;28;20039;-69
2023/06/02 06:20:47;;;;;;;7.70;2.90;;;;;;;21.28;41.92;97795.16;10597650;27;20383;-69
2023/06/02 06:26:08;;;;;;;6.68;2.75;;;;;;;21.32;40.36;97798.09;10601269;27;20063;-69
2023/06/02 06:31:32;;;;;;;11.30;3.30;;;;;;;21.84;40.11;97800.84;10601624;27;20047;-69
2023/06/02 06:36:53;;;;;;;7.70;3.00;;;;;;;21.96;38.60;97806.81;10587273;27;20042;-69
2023/06/02 06:42:15;;;;;;;11.30;4.15;;;;;;;22.40;38.49;97814.94;10615404;27;20042;-69
2023/06/02 06:47:54;;;;;;;7.72;2.90;;;;;;;22.44;38.55;97812.19;10617601;27;20043;-68
2023/06/02 06:53:17;;;;;;;11.15;3.55;;;;;;;23.16;37.09;97822.19;10586519;27;20047;-71
2023/06/02 06:58:38;;;;;;;8.43;2.90;;;;;;;23.42;36.56;97831.97;10585980;27;20067;-71
2023/06/02 07:03:58;;;;;;;10.25;3.03;;;;;;;23.52;35.78;97822.88;10614410;27;20442;-71
2023/06/02 07:09:19;;;;;;;12.43;3.33;;;;;;;24.20;35.72;97834.00;10600073;27;20053;-71
2023/06/02 07:14:40;;;;;;;8.45;2.70;;;;;;;24.98;34.86;97832.22;10599466;27;20043;-71
2023/06/02 07:20:01;;;;;;;7.05;2.35;;;;;;;25.25;33.60;97819.69;10613542;27;20042;-71
2023/06/02 07:25:22;;;;;;;7.63;2.63;;;;;;;25.32;32.67;97837.63;10585115;27;20050;-71
2023/06/02 07:30:47;;;;;;;10.73;2.83;;;;;;;24.97;32.83;97830.78;10628777;27;20050;-71
2023/06/02 07:36:21;;;;;;;12.25;2.97;;;;;;;24.86;32.64;97832.06;10603159;27;20039;-70
2023/06/02 07:41:42;;;;;;;13.10;2.90;;;;;;;25.71;33.22;97832.31;10598605;27;20126;-71
2023/06/02 07:47:07;;;;;;;7.18;2.95;;;;;;;26.50;31.44;97822.22;10613025;27;20047;-71
2023/06/02 07:52:28;;;;;;;6.50;2.20;;;;;;;27.03;30.43;97827.50;10599338;27;20488;-71
2023/06/02 07:57:49;;;;;;;10.25;2.70;;;;;;;27.38;29.46;97831.19;10597915;27;20454;-71
2023/06/02 08:03:10;;;;;;;9.82;3.53;;;;;;;27.20;28.92;97825.41;10597556;27;20058;-71
2023/06/02 08:08:31;;;;;;;8.55;3.03;;;;;;;27.14;29.25;97831.13;10597530;27;20047;-71
2023/06/02 08:13:52;;;;;;;9.13;2.72;;;;;;;27.72;28.59;97835.56;10597559;27;20404;-71
2023/06/02 08:19:13;;;;;;;12.00;3.50;;;;;;;27.50;28.29;97836.94;10597068;27;20421;-71
2023/06/02 08:24:36;;;;;;;8.57;3.03;;;;;;;27.65;28.55;97841.28;10611117;27;20392;-71
2023/06/02 08:29:57;;;;;;;11.48;2.80;;;;;;;28.05;27.66;97831.25;10597448;27;20047;-71
2023/06/02 08:35:18;;;;;;;10.15;2.60;;;;;;;27.83;27.62;97822.66;10610800;27;20396;-71
2023/06/02 08:40:39;;;;;;;6.27;2.50;;;;;;;27.98;27.67;97826.97;10581891;27;20040;-71
2023/06/02 08:46:00;;;;;;;7.27;3.07;;;;;;;27.68;27.34;97827.66;10609844;27;20043;-71
2023/06/02 08:51:24;;;;;;;8.05;3.00;;;;;;;28.11;27.59;97825.53;10581682;27;20046;-71
2023/06/02 08:56:46;;;;;;;9.40;2.85;;;;;;;28.92;25.45;97829.69;10596470;27;20165;-70
2023/06/02 09:02:07;;;;;;;11.77;3.45;;;;;;;28.22;26.17;97838.44;10609932;27;20476;-70
2023/06/02 09:07:28;;;;;;;10.70;2.50;;;;;;;29.11;25.63;97833.94;10575830;27;20055;-71
2023/06/02 09:12:49;;;;;;;8.10;2.60;;;;;;;28.98;24.68;97833.28;10595153;27;20066;-71
2023/06/02 09:18:13;;;;;;;10.95;2.40;;;;;;;29.01;24.62;97842.59;10594833;27;20039;-71
2023/06/02 09:23:44;;;;;;;9.20;2.40;;;;;;;28.89;24.82;97862.75;10594741;27;20058;-71
2023/06/02 09:29:16;;;;;;;;;;;;;;;27.71;25.30;97851.34;10571277;27;20108;-71
2023/06/02 09:34:37;;;;;;;7.40;2.65;;;;;;;28.08;24.83;97846.31;10608798;27;19926;-71
2023/06/02 09:40:05;;;;;;;6.10;2.70;;;;;;;29.39;24.12;97849.59;10608745;28;20049;-72
2023/06/02 09:45:27;;;;;;;5.72;2.45;;;;;;;30.02;23.35;97854.97;10608853;28;20043;-71
2023/06/02 09:50:48;;;;;;;5.70;2.17;;;;;;;29.09;23.78;97856.94;10594411;28;20070;-72
2023/06/02 09:56:09;;;;;;;5.57;2.08;;;;;;;28.67;24.15;97861.34;10601732;27;20043;-71
2023/06/02 10:01:31;;;;;;;7.55;2.40;;;;;;;29.89;22.58;97839.94;10602615;27;20043;-71
2023/06/02 10:07:06;;;;;;;5.70;2.85;;;;;;;29.26;22.63;97855.41;10588266;27;20058;-71
2023/06/02 10:12:36;;;;;;;5.72;2.40;;;;;;;28.35;23.74;97852.78;10601838;27;20392;-71
2023/06/02 10:18:12;;;;;;;7.38;2.42;;;;;;;27.31;24.94;97853.38;10631433;27;20035;-71
2023/06/02 10:24:02;;;;;;;8.88;2.80;;;;;;;26.12;26.16;97870.56;10631444;27;20050;-71
2023/06/02 10:29:25;;;;;;;9.38;2.88;;;;;;;25.83;26.95;97858.16;10602858;27;20463;-71
2023/06/02 10:34:53;;;;;;;8.07;2.70;;;;;;;26.40;26.96;97867.22;10587739;27;20476;-71
2023/06/02 10:40:15;;;;;;;7.57;2.80;;;;;;;26.41;26.63;97860.78;10587344;27;20047;-71
2023/06/02 10:45:36;;;;;;;8.60;2.70;;;;;;;26.64;25.78;97863.81;10615228;27;20507;-71
2023/06/02 10:50:57;;;;;;;7.15;2.88;;;;;;;26.83;25.85;97856.75;10586416;27;20039;-71
2023/06/02 10:56:40;;;;;;;9.52;2.17;;;;;;;27.64;25.78;97862.06;10614487;27;20039;-71
2023/06/02 11:02:01;;;;;;;10.07;2.20;;;;;;;28.66;24.34;97867.81;10614248;27;20043;-71
2023/06/02 11:07:22;;;;;;;6.97;2.17;;;;;;;28.86;23.59;97872.81;10542909;28;20126;-71
2023/06/02 11:12:54;;;;;;;6.97;2.22;;;;;;;28.35;23.76;97867.13;10571166;28;20040;-71
2023/06/02 11:18:35;;;;;;;;;;;;;;;27.65;24.36;97858.50;10571532;28;20384;-71
2023/06/02 11:23:55;;;;;;;6.57;2.15;;;;;;;27.66;24.81;97853.47;10570970;28;19920;-71
2023/06/02 11:29:16;;;;;;;6.43;1.97;;;;;;;27.36;24.48;97866.28;10543064;28;20058;-71
2023/06/02 11:34:39;;;;;;;8.65;2.10;;;;;;;27.07;25.49;97865.47;10542946;28;20040;-71
2023/06/02 11:39:59;;;;;;;9.80;2.33;;;;;;;27.37;25.01;97853.38;10556333;28;20118;-71
2023/06/02 11:45:22;;;;;;;6.93;2.13;;;;;;;27.61;24.69;97867.06;10570348;28;20425;-71
2023/06/02 11:50:42;;;;;;;6.75;2.10;;;;;;;27.58;24.68;97862.03;10542175;28;20521;-72
2023/06/02 11:56:06;;;;;;;7.30;2.08;;;;;;;26.96;25.28;97863.97;10541858;28;20042;-71
2023/06/02 12:01:30;;;;;;;6.15;2.22;;;;;;;26.83;25.67;97859.63;10541552;28;20456;-71
2023/06/02 12:06:52;;;;;;;12.32;2.10;;;;;;;26.46;25.59;97862.25;10579684;27;20051;-71
2023/06/02 12:12:14;;;;;;;6.30;1.88;;;;;;;26.33;26.01;97875.00;10597624;27;20377;-71
2023/06/02 12:17:45;;;;;;;5.00;1.90;;;;;;;26.77;25.85;97871.03;10597590;27;20050;-71
2023/06/02 12:23:09;;;;;;;8.95;2.50;;;;;;;26.75;24.89;97873.88;10610819;27;20070;-71
2023/06/02 12:28:30;;;;;;;8.82;2.17;;;;;;;26.08;25.19;97873.41;10582036;27;20559;-71
2023/06/02 12:33:52;;;;;;;5.43;1.85;;;;;;;25.21;26.04;97873.94;10610516;27;20039;-71
2023/06/02 12:39:12;;;;;;;4.88;1.58;;;;;;;25.34;26.77;97869.78;10610487;27;20039;-71
2023/06/02 12:44:33;;;;;;;3.35;1.48;;;;;;;26.84;25.66;97861.06;10610341;27;20043;-71
2023/06/02 12:49:55;;;;;;;7.30;2.00;;;;;;;26.87;24.65;97862.50;10610114;27;20039;-71
2023/06/02 12:55:16;;;;;;;6.97;1.95;;;;;;;27.70;24.80;97852.75;10595770;27;20566;-71
2023/06/02 13:00:39;;;;;;;7.07;1.73;;;;;;;28.26;23.35;97857.06;10609519;27;20043;-71
2023/06/02 13:06:05;;;;;;;7.00;1.60;;;;;;;27.16;22.99;97862.63;10595307;27;20051;-71
2023/06/02 13:11:28;;;;;;;6.10;1.45;;;;;;;25.13;24.66;97862.41;10595041;27;20078;-71
2023/06/02 13:16:49;;;;;;;11.18;2.75;;;;;;;25.38;25.56;97857.69;10594463;27;20039;-71
2023/06/02 13:22:10;;;;;;;6.57;2.00;;;;;;;25.84;24.32;97860.31;10609005;27;20035;-71
2023/06/02 13:27:32;;;;;;;5.97;1.90;;;;;;;25.60;24.27;97848.63;10608462;27;20476;-71
2023/06/02 13:33:02;;;;;;;7.65;2.05;;;;;;;24.33;25.58;97851.34;10597405;27;20481;-71
2023/06/02 13:38:24;;;;;;;6.53;1.75;;;;;;;23.96;26.30;97862.13;10608642;27;20035;-71
2023/06/02 13:43:45;;;;;;;7.85;1.98;;;;;;;23.47;27.15;97860.53;10623781;28;20048;-71
2023/06/02 13:49:06;;;;;;;8.00;1.88;;;;;;;23.37;27.45;97858.94;10623448;28;20469;-71
2023/06/02 13:54:27;;;;;;;5.85;1.33;;;;;;;23.37;27.62;97858.22;10594072;28;20054;-71
2023/06/02 13:59:47;;;;;;;7.10;1.98;;;;;;;23.48;27.25;97851.28;10608198;28;20039;-71
2023/06/02 14:05:09;;;;;;;6.68;2.03;;;;;;;23.17;27.72;97857.81;10593804;28;20068;-71
2023/06/02 14:10:29;;;;;;;6.65;1.95;;;;;;;22.64;29.02;97862.38;10607950;28;20066;-71
2023/06/02 14:15:52;;;;;;;7.90;2.10;;;;;;;22.11;29.25;97855.50;10593606;28;20068;-71
2023/06/02 14:21:13;;;;;;;9.27;1.80;;;;;;;21.75;29.99;97870.22;10607576;28;20066;-71
2023/06/02 14:26:33;;;;;;;8.02;1.65;;;;;;;22.10;29.98;97871.09;10578913;28;20275;-69
2023/06/02 14:31:54;;;;;;;6.78;1.67;;;;;;;22.12;29.51;97868.31;10593147;28;20049;-69
2023/06/02 14:37:16;;;;;;;5.95;1.80;;;;;;;22.20;29.94;97869.22;10622695;28;20115;-69
2023/06/02 14:42:38;;;;;;;10.37;2.20;;;;;;;22.50;29.36;97871.34;10598800;27;20459;-69
2023/06/02 14:48:00;;;;;;;8.75;2.05;;;;;;;22.71;29.15;97866.81;10615038;27;20488;-69
2023/06/02 14:53:22;;;;;;;8.25;1.95;;;;;;;22.42;29.20;97869.03;10601170;27;20058;-69
2023/06/02 14:58:43;;;;;;;8.45;2.08;;;;;;;22.06;29.86;97876.66;10614755;27;20063;-69
2023/06/02 15:04:07;;;;;;;4.43;1.40;;;;;;;22.27;30.27;97884.28;10615015;27;20051;-69
2023/06/02 15:09:27;;;;;;;8.45;2.28;;;;;;;22.54;30.21;97880.66;10600031;27;20050;-69
2023/06/02 15:14:49;;;;;;;10.77;2.22;;;;;;;22.08;30.19;97879.56;10599597;27;20039;-71
2023/06/02 15:20:10;;;;;;;7.82;2.00;;;;;;;21.50;31.52;97883.06;10613930;27;20039;-69
2023/06/02 15:25:35;;;;;;;9.10;1.92;;;;;;;21.39;32.19;97882.06;10599404;27;20043;-69
2023/06/02 15:30:56;;;;;;;10.93;2.58;;;;;;;21.30;32.64;97888.91;10628698;27;20043;-69
2023/06/02 15:36:17;;;;;;;7.63;1.83;;;;;;;21.09;33.25;97881.19;10613352;27;20431;-69
2023/06/02 15:41:38;;;;;;;8.82;1.45;;;;;;;20.92;33.49;97882.09;10613038;27;20047;-69
2023/06/02 15:47:00;;;;;;;7.97;1.73;;;;;;;20.72;33.48;97882.22;10598671;27;20043;-69
2023/06/02 15:52:21;;;;;;;5.28;1.77;;;;;;;20.63;33.48;97878.44;10612105;27;20515;-69
2023/06/02 15:57:42;;;;;;;8.88;2.47;;;;;;;20.44;33.58;97879.97;10597989;27;20039;-69
2023/06/02 16:03:03;;;;;;;6.75;1.48;;;;;;;20.52;33.95;97880.22;10597669;27;20053;-69
2023/06/02 16:08:26;;;;;;;6.75;1.67;;;;;;;20.50;34.66;97883.00;10611411;27;20118;-69
2023/06/02 16:13:46;;;;;;;7.57;1.83;;;;;;;20.61;34.70;97894.66;10611580;27;20043;-69
2023/06/02 16:19:07;;;;;;;9.43;1.77;;;;;;;20.38;34.70;97896.06;10597460;27;20066;-69
2023/06/02 16:24:28;;;;;;;7.32;1.70;;;;;;;20.46;34.39;97896.31;10596727;27;20043;-68
2023/06/02 16:29:48;;;;;;;11.27;2.00;;;;;;;20.48;34.37;97888.63;10596745;27;20051;-69
2023/06/02 16:35:10;;;;;;;7.53;1.80;;;;;;;20.37;34.42;97898.19;10596569;27;20529;-69
2023/06/02 16:40:31;;;;;;;8.70;2.13;;;;;;;20.25;34.84;97892.84;10610830;27;20491;-69
2023/06/02 16:45:51;;;;;;;5.22;1.77;;;;;;;20.42;34.69;97890.50;10581698;27;20523;-69
2023/06/02 16:51:12;;;;;;;4.78;1.38;;;;;;;20.52;34.55;97902.19;10596118;27;20047;-69
2023/06/02 16:56:33;;;;;;;8.60;1.77;;;;;;;20.37;34.62;97905.97;10609898;27;20080;-69
2023/06/02 17:01:54;;;;;;;7.93;2.17;;;;;;;20.15;34.83;97909.50;10594840;27;20126;-71
2023/06/02 17:07:15;;;;;;;12.60;2.20;;;;;;;19.71;36.18;97926.47;10595343;27;20179;-68
2023/06/02 17:12:36;;;;;;;6.75;1.90;;;;;;;19.10;37.28;97926.38;10609511;27;20063;-71
2023/06/02 17:17:57;;;;;;;8.88;2.25;;;;;;;18.82;38.19;97926.06;10581327;27;20073;-71
2023/06/02 17:23:17;;;;;;;6.65;1.77;;;;;;;18.83;38.82;97928.22;10594933;27;20039;-70
2023/06/02 17:28:38;;;;;;;9.00;1.95;;;;;;;18.94;38.94;97935.00;10624516;27;20092;-70
2023/06/02 17:33:59;;;;;;;8.77;2.00;;;;;;;18.98;38.88;97937.97;10608888;27;20066;-71
2023/06/02 17:39:20;;;;;;;10.32;1.60;;;;;;;19.00;38.96;97935.19;10566240;27;20062;-70
2023/06/02 17:44:43;;;;;;;8.38;1.92;;;;;;;18.94;39.06;97934.25;10594788;28;20168;-70
2023/06/02 17:50:05;;;;;;;;;;;;;;;18.49;39.39;97936.06;10609536;28;20480;-70
2023/06/02 17:55:26;;;;;;;5.50;1.67;;;;;;;18.00;40.59;97944.66;10580597;28;19919;-71
2023/06/02 18:00:47;;;;;;;7.10;1.90;;;;;;;17.62;41.40;97946.56;10579930;28;20395;-71
2023/06/02 18:06:07;;;;;;;5.80;1.48;;;;;;;17.40;42.32;97955.50;10594155;28;20058;-71
2023/06/02 18:11:28;;;;;;;5.47;1.60;;;;;;;17.21;43.00;97963.81;10608174;28;20063;-71
2023/06/02 18:16:49;;;;;;;5.50;1.50;;;;;;;17.02;43.33;97956.59;10585936;27;20039;-71
2023/06/02 18:22:10;;;;;;;6.70;1.60;;;;;;;16.86;43.77;97965.75;10602064;27;20097;-70
2023/06/02 18:27:31;;;;;;;6.50;1.70;;;;;;;16.79;43.92;97975.31;10631342;27;20449;-70
2023/06/02 18:32:51;;;;;;;6.65;1.67;;;;;;;16.68;44.42;97979.00;10631419;27;20043;-70
2023/06/02 18:38:12;;;;;;;4.47;1.65;;;;;;;16.61;44.35;97991.34;10630957;27;20066;-70
2023/06/02 18:43:33;;;;;;;4.68;1.40;;;;;;;16.51;44.66;97985.94;10630765;27;20047;-71
2023/06/02 18:48:54;;;;;;;7.05;1.30;;;;;;;16.37;44.78;98004.22;10614856;27;20042;-70
2023/06/02 18:54:14;;;;;;;6.07;1.73;;;;;;;16.20;44.76;97997.78;10600810;27;20043;-71
2023/06/02 18:59:35;;;;;;;4.70;1.13;;;;;;;16.07;45.14;97998.56;10600421;27;20071;-71
2023/06/02 19:04:55;;;;;;;5.18;1.73;;;;;;;16.02;45.34;98016.63;10600325;27;20118;-71
2023/06/02 19:10:16;;;;;;;4.68;1.42;;;;;;;15.85;45.37;98017.16;10614415;27;20503;-70
2023/06/02 19:15:37;;;;;;;3.90;1.45;;;;;;;15.80;45.43;98023.91;10614339;27;20373;-70
2023/06/02 19:20:58;;;;;;;3.38;1.60;;;;;;;15.67;45.64;98031.72;10614039;27;20072;-69
2023/06/02 19:26:20;;;;;;;6.07;1.45;;;;;;;15.53;45.82;98030.94;10598981;27;20043;-69
2023/06/02 19:31:41;;;;;;;5.13;1.50;;;;;;;15.45;46.02;98047.41;10599837;27;20050;-69
2023/06/02 19:37:01;;;;;;;6.30;1.77;;;;;;;15.37;46.58;98052.59;10613323;27;20107;-69
2023/06/02 19:42:22;;;;;;;3.72;1.83;;;;;;;15.33;46.26;98052.38;10628463;27;20042;-69
2023/06/02 19:47:42;;;;;;;5.28;1.65;;;;;;;15.21;46.70;98051.72;10628508;27;20067;-69
2023/06/02 19:53:04;;;;;;;5.68;1.60;;;;;;;15.15;46.88;98050.06;10584318;27;20092;-69
2023/06/02 19:58:25;;;;;;;3.50;1.33;;;;;;;15.07;47.25;98060.13;10612823;27;20056;-69
2023/06/02 20:03:46;;;;;;;2.65;1.13;;;;;;;15.01;47.71;98056.97;10597578;27;20082;-69
2023/06/02 20:09:06;;;;;;;5.85;1.83;;;;;;;14.92;47.47;98067.03;10597987;27;20067;-69
2023/06/02 20:14:27;;;;;;;4.28;1.88;;;;;;;14.95;47.65;98071.41;10597444;27;20059;-69
2023/06/02 20:19:49;;;;;;;3.47;1.60;;;;;;;14.94;47.84;98072.03;10626883;27;20115;-70
2023/06/02 20:25:09;;;;;;;3.65;1.42;;;;;;;14.93;48.01;98079.72;10597475;27;20065;-70
2023/06/02 20:30:30;;;;;;;5.05;1.55;;;;;;;14.86;48.16;98077.94;10597645;27;20072;-69
2023/06/02 20:35:51;;;;;;;6.20;1.67;;;;;;;14.78;48.58;98080.31;10596874;27;20047;-69
2023/06/02 20:41:15;;;;;;;3.85;1.80;;;;;;;14.67;48.71;98086.69;10595233;27;20062;-69
2023/06/02 20:46:36;;;;;;;4.82;1.90;;;;;;;14.55;49.23;98093.06;10610582;27;20054;-69
2023/06/02 20:51:57;;;;;;;4.28;1.80;;;;;;;14.47;49.76;98098.22;10596433;27;20475;-69
2023/06/02 20:57:18;;;;;;;5.10;2.10;;;;;;;14.46;50.04;98107.25;10609930;27;20460;-69
2023/06/02 21:02:39;;;;;;;4.93;2.25;;;;;;;14.49;49.99;98098.34;10609971;27;20067;-69
2023/06/02 21:08:00;;;;;;;4.35;1.90;;;;;;;14.47;50.41;98103.09;10609700;27;20066;-69
2023/06/02 21:13:20;;;;;;;3.92;2.00;;;;;;;14.38;50.40;98107.50;10609694;27;20124;-70
2023/06/02 21:18:43;;;;;;;7.13;2.50;;;;;;;14.27;50.97;98102.63;10595320;27;20071;-69
2023/06/02 21:24:04;;;;;;;3.20;2.25;;;;;;;14.15;51.33;98102.66;10595473;27;20537;-69
2023/06/02 21:29:24;;;;;;;6.28;2.10;;;;;;;14.09;51.96;98116.34;10594752;27;20453;-69
2023/06/02 21:34:45;;;;;;;4.95;2.03;;;;;;;14.02;52.72;98106.09;10594915;27;20074;-69
2023/06/02 21:40:07;;;;;;;3.58;2.03;;;;;;;13.93;52.74;98104.84;10594656;27;20129;-69
2023/06/02 21:45:27;;;;;;;4.50;1.95;;;;;;;13.86;53.19;98114.25;10609004;28;20110;-69
2023/06/02 21:50:48;;;;;;;4.07;2.13;;;;;;;13.75;53.53;98118.50;10585106;27;20114;-69
2023/06/02 21:56:09;;;;;;;5.22;2.10;;;;;;;13.72;53.57;98121.81;10632774;27;20078;-69
2023/06/02 22:01:30;;;;;;;9.32;2.28;;;;;;;13.70;54.31;98119.63;10602904;27;20114;-69
2023/06/02 22:06:51;;;;;;;5.63;2.13;;;;;;;13.77;54.73;98128.41;10602687;27;20130;-69
2023/06/02 22:12:11;;;;;;;6.45;2.15;;;;;;;13.83;54.22;98115.47;10588222;27;20118;-69
2023/06/02 22:17:32;;;;;;;10.40;2.15;;;;;;;13.92;54.22;98113.91;10602670;27;20551;-69
2023/06/02 22:22:53;;;;;;;5.38;1.88;;;;;;;14.08;54.07;98122.53;10616128;27;20063;-69
2023/06/02 22:28:14;;;;;;;6.45;1.90;;;;;;;14.20;53.87;98117.66;10615994;27;20047;-69
2023/06/02 22:33:34;;;;;;;4.45;2.05;;;;;;;14.28;53.56;98118.88;10601655;27;20114;-69
2023/06/02 22:38:55;;;;;;;6.78;1.60;;;;;;;14.30;53.39;98123.88;10601850;27;20119;-70
2023/06/02 22:44:15;;;;;;;5.88;1.67;;;;;;;14.17;52.97;98121.69;10615573;27;20067;-69
2023/06/02 22:49:36;;;;;;;3.75;1.30;;;;;;;13.97;53.04;98121.94;10601289;27;20116;-69
2023/06/02 22:54:57;;;;;;;5.18;1.50;;;;;;;13.77;53.04;98119.97;10601249;27;20043;-69
2023/06/02 23:00:17;;;;;;;3.88;1.40;;;;;;;13.61;53.31;98128.16;10599656;27;20069;-69
2023/06/02 23:05:38;;;;;;;2.97;1.30;;;;;;;13.50;53.05;98131.66;10600406;27;20081;-69
2023/06/02 23:10:58;;;;;;;6.57;1.30;;;;;;;13.36;53.36;98129.44;10600461;27;20119;-69
2023/06/02 23:16:19;;;;;;;4.25;1.38;;;;;;;13.27;53.58;98130.25;10600195;27;20122;-69
2023/06/02 23:21:40;;;;;;;3.10;1.20;;;;;;;13.17;53.50;98135.19;10599686;27;20118;-69
2023/06/02 23:27:01;;;;;;;4.38;1.20;;;;;;;13.11;53.60;98143.94;10585625;27;20116;-69
2023/06/02 23:32:22;;;;;;;6.20;1.48;;;;;;;13.05;53.13;98151.97;10613737;27;20066;-69
2023/06/02 23:37:42;;;;;;;4.07;1.30;;;;;;;12.99;53.44;98148.03;10599180;27;20115;-69
2023/06/02 23:43:04;;;;;;;3.58;1.25;;;;;;;12.87;53.56;98148.72;10628802;27;20168;-69
2023/06/02 23:48:25;;;;;;;3.50;1.00;;;;;;;12.86;53.57;98147.25;10584731;27;20461;-69
2023/06/02 23:53:45;;;;;;;6.75;1.20;;;;;;;12.80;53.70;98148.94;10612863;27;20451;-69
2023/06/02 23:59:06;;;;;;;3.95;1.00;;;;;;;12.75;53.96;98153.53;10627670;27;20156;-71
